sensor_id;sensor_type;location;lat;lon;timestamp;temperature;humidity
1455;DHT22;721;48.168;12.818;2023-12-20T00:01:42;1.60;22.90
1455;DHT22;721;48.168;12.818;2023-12-20T00:04:08;1.60;23.40
1455;DHT22;721;48.168;12.818;2023-12-20T00:06:35;1.70;22.70
1455;DHT22;721;48.168;12.818;2023-12-20T00:09:02;1.80;22.70
1455;DHT22;721;48.168;12.818;2023-12-20T00:11:30;1.80;22.40
1455;DHT22;721;48.168;12.818;2023-12-20T00:13:57;1.80;22.20
1455;DHT22;721;48.168;12.818;2023-12-20T00:16:23;1.80;21.90
1455;DHT22;721;48.168;12.818;2023-12-20T00:18:50;1.80;21.90
1455;DHT22;721;48.168;12.818;2023-12-20T00:21:17;1.90;21.90
1455;DHT22;721;48.168;12.818;2023-12-20T00:23:44;1.90;21.30
1455;DHT22;721;48.168;12.818;2023-12-20T00:26:10;2.00;22.00
1455;DHT22;721;48.168;12.818;2023-12-20T00:28:39;2.00;22.00
1455;DHT22;721;48.168;12.818;2023-12-20T00:31:06;2.10;20.80
1455;DHT22;721;48.168;12.818;2023-12-20T00:33:33;2.10;20.10
1455;DHT22;721;48.168;12.818;2023-12-20T00:35:59;2.10;19.30
1455;DHT22;721;48.168;12.818;2023-12-20T00:38:26;2.20;18.90
1455;DHT22;721;48.168;12.818;2023-12-20T00:40:53;2.20;18.40
1455;DHT22;721;48.168;12.818;2023-12-20T00:43:19;2.20;18.80
1455;DHT22;721;48.168;12.818;2023-12-20T00:45:48;2.20;19.30
1455;DHT22;721;48.168;12.818;2023-12-20T00:48:15;2.30;18.90
1455;DHT22;721;48.168;12.818;2023-12-20T00:50:41;2.30;19.00
1455;DHT22;721;48.168;12.818;2023-12-20T00:53:08;2.30;19.30
1455;DHT22;721;48.168;12.818;2023-12-20T00:55:35;2.30;19.00
1455;DHT22;721;48.168;12.818;2023-12-20T00:58:02;2.30;18.30
1455;DHT22;721;48.168;12.818;2023-12-20T01:00:29;2.30;18.50
1455;DHT22;721;48.168;12.818;2023-12-20T01:02:57;2.30;18.20
1455;DHT22;721;48.168;12.818;2023-12-20T01:05:24;2.30;17.20
1455;DHT22;721;48.168;12.818;2023-12-20T01:07:50;2.30;17.10
1455;DHT22;721;48.168;12.818;2023-12-20T01:10:17;1.90;18.20
1455;DHT22;721;48.168;12.818;2023-12-20T01:12:44;1.80;21.60
1455;DHT22;721;48.168;12.818;2023-12-20T01:15:11;1.90;21.90
1455;DHT22;721;48.168;12.818;2023-12-20T01:17:38;1.90;21.20
1455;DHT22;721;48.168;12.818;2023-12-20T01:20:07;1.90;21.90
1455;DHT22;721;48.168;12.818;2023-12-20T01:22:34;1.90;22.60
1455;DHT22;721;48.168;12.818;2023-12-20T01:25:01;2.00;22.00
1455;DHT22;721;48.168;12.818;2023-12-20T01:27:29;2.10;20.70
1455;DHT22;721;48.168;12.818;2023-12-20T01:29:56;2.10;20.10
1455;DHT22;721;48.168;12.818;2023-12-20T01:32:23;2.30;18.30
1455;DHT22;721;48.168;12.818;2023-12-20T01:34:50;2.30;18.30
1455;DHT22;721;48.168;12.818;2023-12-20T01:37:18;2.40;17.10
1455;DHT22;721;48.168;12.818;2023-12-20T01:39:45;2.50;16.70
1455;DHT22;721;48.168;12.818;2023-12-20T01:42:11;2.50;17.30
1455;DHT22;721;48.168;12.818;2023-12-20T01:44:38;2.40;19.30
1455;DHT22;721;48.168;12.818;2023-12-20T01:47:05;2.50;18.20
1455;DHT22;721;48.168;12.818;2023-12-20T01:49:32;2.50;17.90
1455;DHT22;721;48.168;12.818;2023-12-20T01:51:59;2.60;17.80
1455;DHT22;721;48.168;12.818;2023-12-20T01:54:27;2.50;18.40
1455;DHT22;721;48.168;12.818;2023-12-20T01:56:55;2.60;17.60
1455;DHT22;721;48.168;12.818;2023-12-20T01:59:22;2.60;16.70
1455;DHT22;721;48.168;12.818;2023-12-20T02:01:49;2.60;16.20
1455;DHT22;721;48.168;12.818;2023-12-20T02:04:16;2.50;16.60
1455;DHT22;721;48.168;12.818;2023-12-20T02:06:43;2.40;16.90
1455;DHT22;721;48.168;12.818;2023-12-20T02:09:12;2.50;17.30
1455;DHT22;721;48.168;12.818;2023-12-20T02:11:41;2.50;17.10
1455;DHT22;721;48.168;12.818;2023-12-20T02:14:08;2.70;16.80
1455;DHT22;721;48.168;12.818;2023-12-20T02:16:34;2.60;16.90
1455;DHT22;721;48.168;12.818;2023-12-20T02:19:02;2.60;16.20
1455;DHT22;721;48.168;12.818;2023-12-20T02:21:33;2.70;15.70
1455;DHT22;721;48.168;12.818;2023-12-20T02:24:01;2.70;16.00
1455;DHT22;721;48.168;12.818;2023-12-20T02:26:27;2.70;15.50
1455;DHT22;721;48.168;12.818;2023-12-20T02:28:55;2.70;15.30
1455;DHT22;721;48.168;12.818;2023-12-20T02:31:22;2.80;15.40
1455;DHT22;721;48.168;12.818;2023-12-20T02:33:49;2.60;16.50
1455;DHT22;721;48.168;12.818;2023-12-20T02:36:16;2.60;16.70
1455;DHT22;721;48.168;12.818;2023-12-20T02:38:44;2.50;17.80
1455;DHT22;721;48.168;12.818;2023-12-20T02:41:11;2.50;18.50
1455;DHT22;721;48.168;12.818;2023-12-20T02:43:38;2.50;18.70
1455;DHT22;721;48.168;12.818;2023-12-20T02:46:04;2.50;18.40
1455;DHT22;721;48.168;12.818;2023-12-20T02:48:31;2.60;18.40
1455;DHT22;721;48.168;12.818;2023-12-20T02:50:58;2.60;18.10
1455;DHT22;721;48.168;12.818;2023-12-20T02:53:25;2.70;17.40
1455;DHT22;721;48.168;12.818;2023-12-20T02:55:53;2.70;17.60
1455;DHT22;721;48.168;12.818;2023-12-20T02:58:20;2.80;17.60
1455;DHT22;721;48.168;12.818;2023-12-20T03:00:47;2.80;17.20
1455;DHT22;721;48.168;12.818;2023-12-20T03:03:13;2.80;17.50
1455;DHT22;721;48.168;12.818;2023-12-20T03:05:40;2.80;17.80
1455;DHT22;721;48.168;12.818;2023-12-20T03:08:07;2.90;17.80
1455;DHT22;721;48.168;12.818;2023-12-20T03:10:34;2.90;17.10
1455;DHT22;721;48.168;12.818;2023-12-20T03:13:02;2.80;17.60
1455;DHT22;721;48.168;12.818;2023-12-20T03:15:29;2.80;18.60
1455;DHT22;721;48.168;12.818;2023-12-20T03:17:55;2.80;17.80
1455;DHT22;721;48.168;12.818;2023-12-20T03:20:24;2.80;17.60
1455;DHT22;721;48.168;12.818;2023-12-20T03:22:51;2.80;17.90
1455;DHT22;721;48.168;12.818;2023-12-20T03:25:18;2.90;17.60
1455;DHT22;721;48.168;12.818;2023-12-20T03:27:45;2.90;17.20
1455;DHT22;721;48.168;12.818;2023-12-20T03:30:13;2.80;17.30
1455;DHT22;721;48.168;12.818;2023-12-20T03:32:40;2.80;17.80
1455;DHT22;721;48.168;12.818;2023-12-20T03:35:07;2.80;18.10
1455;DHT22;721;48.168;12.818;2023-12-20T03:37:33;2.70;17.90
1455;DHT22;721;48.168;12.818;2023-12-20T03:40:00;2.80;18.50
1455;DHT22;721;48.168;12.818;2023-12-20T03:42:27;2.90;18.40
1455;DHT22;721;48.168;12.818;2023-12-20T03:44:54;3.00;18.20
1455;DHT22;721;48.168;12.818;2023-12-20T03:47:22;3.00;18.00
1455;DHT22;721;48.168;12.818;2023-12-20T03:49:49;3.00;18.00
1455;DHT22;721;48.168;12.818;2023-12-20T03:52:16;3.10;18.00
1455;DHT22;721;48.168;12.818;2023-12-20T03:54:43;3.10;18.00
1455;DHT22;721;48.168;12.818;2023-12-20T03:57:10;3.10;18.20
1455;DHT22;721;48.168;12.818;2023-12-20T03:59:36;3.10;18.30
1455;DHT22;721;48.168;12.818;2023-12-20T04:02:03;3.10;18.80
1455;DHT22;721;48.168;12.818;2023-12-20T04:04:32;3.00;20.00
1455;DHT22;721;48.168;12.818;2023-12-20T04:06:58;3.00;19.30
1455;DHT22;721;48.168;12.818;2023-12-20T04:09:25;3.10;19.20
1455;DHT22;721;48.168;12.818;2023-12-20T04:11:52;3.10;19.50
1455;DHT22;721;48.168;12.818;2023-12-20T04:14:19;3.30;19.70
1455;DHT22;721;48.168;12.818;2023-12-20T04:16:45;3.10;19.70
1455;DHT22;721;48.168;12.818;2023-12-20T04:19:12;3.20;19.50
1455;DHT22;721;48.168;12.818;2023-12-20T04:21:40;3.20;19.20
1455;DHT22;721;48.168;12.818;2023-12-20T04:24:07;3.30;19.00
1455;DHT22;721;48.168;12.818;2023-12-20T04:26:34;3.30;18.90
1455;DHT22;721;48.168;12.818;2023-12-20T04:29:01;3.30;19.10
1455;DHT22;721;48.168;12.818;2023-12-20T04:31:28;3.30;18.90
1455;DHT22;721;48.168;12.818;2023-12-20T04:33:55;3.40;18.50
1455;DHT22;721;48.168;12.818;2023-12-20T04:36:21;3.40;18.10
1455;DHT22;721;48.168;12.818;2023-12-20T04:38:51;3.90;18.50
1455;DHT22;721;48.168;12.818;2023-12-20T04:41:18;3.50;17.90
1455;DHT22;721;48.168;12.818;2023-12-20T04:43:45;3.50;17.60
1455;DHT22;721;48.168;12.818;2023-12-20T04:46:12;3.60;17.10
1455;DHT22;721;48.168;12.818;2023-12-20T04:48:39;3.50;17.00
1455;DHT22;721;48.168;12.818;2023-12-20T04:51:07;3.60;18.10
1455;DHT22;721;48.168;12.818;2023-12-20T04:53:34;3.60;17.00
1455;DHT22;721;48.168;12.818;2023-12-20T04:56:02;3.70;16.20
1455;DHT22;721;48.168;12.818;2023-12-20T04:58:29;3.70;15.70
1455;DHT22;721;48.168;12.818;2023-12-20T05:00:56;3.80;15.30
1455;DHT22;721;48.168;12.818;2023-12-20T05:03:23;3.90;15.30
1455;DHT22;721;48.168;12.818;2023-12-20T05:05:49;3.90;15.00
1455;DHT22;721;48.168;12.818;2023-12-20T05:08:16;3.90;15.00
1455;DHT22;721;48.168;12.818;2023-12-20T05:10:43;3.90;14.80
1455;DHT22;721;48.168;12.818;2023-12-20T05:13:11;3.90;14.50
1455;DHT22;721;48.168;12.818;2023-12-20T05:15:38;4.00;13.90
1455;DHT22;721;48.168;12.818;2023-12-20T05:18:05;4.20;13.00
1455;DHT22;721;48.168;12.818;2023-12-20T05:20:32;4.20;12.30
1455;DHT22;721;48.168;12.818;2023-12-20T05:22:58;4.30;12.20
1455;DHT22;721;48.168;12.818;2023-12-20T05:25:25;4.40;11.30
1455;DHT22;721;48.168;12.818;2023-12-20T05:27:53;4.50;12.00
1455;DHT22;721;48.168;12.818;2023-12-20T05:30:21;4.50;11.40
1455;DHT22;721;48.168;12.818;2023-12-20T05:32:48;4.50;11.40
1455;DHT22;721;48.168;12.818;2023-12-20T05:35:15;4.50;10.60
1455;DHT22;721;48.168;12.818;2023-12-20T05:37:42;4.60;10.50
1455;DHT22;721;48.168;12.818;2023-12-20T05:40:09;4.60;10.60
1455;DHT22;721;48.168;12.818;2023-12-20T05:42:36;4.70;10.30
1455;DHT22;721;48.168;12.818;2023-12-20T05:45:03;4.70;10.60
1455;DHT22;721;48.168;12.818;2023-12-20T05:47:32;4.70;10.20
1455;DHT22;721;48.168;12.818;2023-12-20T05:49:59;4.90;9.40
1455;DHT22;721;48.168;12.818;2023-12-20T05:52:25;4.90;9.20
1455;DHT22;721;48.168;12.818;2023-12-20T05:54:52;5.00;9.40
1455;DHT22;721;48.168;12.818;2023-12-20T05:57:18;5.20;9.70
1455;DHT22;721;48.168;12.818;2023-12-20T05:59:45;5.10;9.40
1455;DHT22;721;48.168;12.818;2023-12-20T06:02:12;5.20;9.70
1455;DHT22;721;48.168;12.818;2023-12-20T06:04:43;5.10;10.40
1455;DHT22;721;48.168;12.818;2023-12-20T06:07:11;5.20;11.30
1455;DHT22;721;48.168;12.818;2023-12-20T06:09:38;5.00;12.40
1455;DHT22;721;48.168;12.818;2023-12-20T06:12:06;5.00;13.70
1455;DHT22;721;48.168;12.818;2023-12-20T06:14:33;4.90;16.00
1455;DHT22;721;48.168;12.818;2023-12-20T06:17:00;4.80;17.90
1455;DHT22;721;48.168;12.818;2023-12-20T06:19:27;4.70;19.90
1455;DHT22;721;48.168;12.818;2023-12-20T06:21:55;4.70;22.30
1455;DHT22;721;48.168;12.818;2023-12-20T06:24:22;4.70;23.00
1455;DHT22;721;48.168;12.818;2023-12-20T06:26:53;4.70;23.90
1455;DHT22;721;48.168;12.818;2023-12-20T06:29:20;4.60;25.40
1455;DHT22;721;48.168;12.818;2023-12-20T06:31:46;4.70;26.60
1455;DHT22;721;48.168;12.818;2023-12-20T06:34:14;4.60;27.60
1455;DHT22;721;48.168;12.818;2023-12-20T06:36:40;4.50;31.30
1455;DHT22;721;48.168;12.818;2023-12-20T06:39:08;4.50;33.60
1455;DHT22;721;48.168;12.818;2023-12-20T06:41:37;4.40;36.40
1455;DHT22;721;48.168;12.818;2023-12-20T06:44:04;4.40;38.00
1455;DHT22;721;48.168;12.818;2023-12-20T06:46:31;4.50;40.00
1455;DHT22;721;48.168;12.818;2023-12-20T06:48:58;4.40;41.20
1455;DHT22;721;48.168;12.818;2023-12-20T06:51:25;4.40;42.60
1455;DHT22;721;48.168;12.818;2023-12-20T06:53:52;4.40;42.90
1455;DHT22;721;48.168;12.818;2023-12-20T06:56:20;4.40;43.30
1455;DHT22;721;48.168;12.818;2023-12-20T06:58:47;4.50;43.40
1455;DHT22;721;48.168;12.818;2023-12-20T07:01:14;4.50;43.70
1455;DHT22;721;48.168;12.818;2023-12-20T07:03:42;4.60;43.70
1455;DHT22;721;48.168;12.818;2023-12-20T07:06:08;4.60;42.50
1455;DHT22;721;48.168;12.818;2023-12-20T07:08:35;4.60;41.80
1455;DHT22;721;48.168;12.818;2023-12-20T07:11:02;4.60;41.40
1455;DHT22;721;48.168;12.818;2023-12-20T07:13:31;4.50;41.80
1455;DHT22;721;48.168;12.818;2023-12-20T07:15:57;4.50;44.70
1455;DHT22;721;48.168;12.818;2023-12-20T07:18:24;4.40;46.80
1455;DHT22;721;48.168;12.818;2023-12-20T07:20:51;4.50;49.30
1455;DHT22;721;48.168;12.818;2023-12-20T07:23:20;4.40;50.70
1455;DHT22;721;48.168;12.818;2023-12-20T07:25:47;4.40;52.20
1455;DHT22;721;48.168;12.818;2023-12-20T07:28:24;4.50;52.70
1455;DHT22;721;48.168;12.818;2023-12-20T07:31:33;4.50;53.10
1455;DHT22;721;48.168;12.818;2023-12-20T07:34:00;4.50;53.40
1455;DHT22;721;48.168;12.818;2023-12-20T07:36:27;4.60;53.70
1455;DHT22;721;48.168;12.818;2023-12-20T07:38:54;4.60;54.50
1455;DHT22;721;48.168;12.818;2023-12-20T07:41:21;4.60;55.30
1455;DHT22;721;48.168;12.818;2023-12-20T07:43:49;4.60;55.50
1455;DHT22;721;48.168;12.818;2023-12-20T07:46:15;4.70;56.40
1455;DHT22;721;48.168;12.818;2023-12-20T07:48:44;4.70;56.50
1455;DHT22;721;48.168;12.818;2023-12-20T07:51:11;4.70;57.20
1455;DHT22;721;48.168;12.818;2023-12-20T07:53:38;4.80;57.60
1455;DHT22;721;48.168;12.818;2023-12-20T07:56:14;4.70;57.30
1455;DHT22;721;48.168;12.818;2023-12-20T07:58:40;5.00;57.60
1455;DHT22;721;48.168;12.818;2023-12-20T08:01:07;4.80;55.90
1455;DHT22;721;48.168;12.818;2023-12-20T08:03:34;4.80;56.60
1455;DHT22;721;48.168;12.818;2023-12-20T08:06:02;4.80;57.00
1455;DHT22;721;48.168;12.818;2023-12-20T08:08:29;4.80;57.90
1455;DHT22;721;48.168;12.818;2023-12-20T08:10:56;4.80;58.00
1455;DHT22;721;48.168;12.818;2023-12-20T08:13:25;4.80;59.50
1455;DHT22;721;48.168;12.818;2023-12-20T08:15:53;4.80;59.60
1455;DHT22;721;48.168;12.818;2023-12-20T08:18:21;4.90;59.90
1455;DHT22;721;48.168;12.818;2023-12-20T08:20:48;4.90;59.50
1455;DHT22;721;48.168;12.818;2023-12-20T08:23:16;4.90;59.10
1455;DHT22;721;48.168;12.818;2023-12-20T08:25:43;5.60;58.70
1455;DHT22;721;48.168;12.818;2023-12-20T08:28:10;4.90;57.80
1455;DHT22;721;48.168;12.818;2023-12-20T08:30:37;4.90;58.60
1455;DHT22;721;48.168;12.818;2023-12-20T08:33:04;4.90;59.00
1455;DHT22;721;48.168;12.818;2023-12-20T08:35:33;4.90;59.10
1455;DHT22;721;48.168;12.818;2023-12-20T08:37:59;4.90;58.80
1455;DHT22;721;48.168;12.818;2023-12-20T08:40:27;4.90;59.00
1455;DHT22;721;48.168;12.818;2023-12-20T08:42:54;4.90;58.50
1455;DHT22;721;48.168;12.818;2023-12-20T08:45:21;4.90;58.60
1455;DHT22;721;48.168;12.818;2023-12-20T08:47:48;4.90;58.50
1455;DHT22;721;48.168;12.818;2023-12-20T08:50:15;4.70;57.60
1455;DHT22;721;48.168;12.818;2023-12-20T08:52:41;4.80;57.90
1455;DHT22;721;48.168;12.818;2023-12-20T08:55:09;4.80;58.20
1455;DHT22;721;48.168;12.818;2023-12-20T08:57:37;4.80;58.40
1455;DHT22;721;48.168;12.818;2023-12-20T09:00:05;4.80;58.40
1455;DHT22;721;48.168;12.818;2023-12-20T09:02:33;4.90;58.30
1455;DHT22;721;48.168;12.818;2023-12-20T09:05:01;4.90;57.40
1455;DHT22;721;48.168;12.818;2023-12-20T09:07:28;4.80;57.00
1455;DHT22;721;48.168;12.818;2023-12-20T09:09:56;4.80;57.60
1455;DHT22;721;48.168;12.818;2023-12-20T09:12:23;4.90;58.00
1455;DHT22;721;48.168;12.818;2023-12-20T09:14:52;4.80;57.80
1455;DHT22;721;48.168;12.818;2023-12-20T09:17:19;4.80;58.40
1455;DHT22;721;48.168;12.818;2023-12-20T09:19:48;4.80;58.60
1455;DHT22;721;48.168;12.818;2023-12-20T09:22:18;4.90;59.20
1455;DHT22;721;48.168;12.818;2023-12-20T09:24:44;4.80;58.60
1455;DHT22;721;48.168;12.818;2023-12-20T09:27:11;4.90;58.80
1455;DHT22;721;48.168;12.818;2023-12-20T09:29:38;5.40;59.30
1455;DHT22;721;48.168;12.818;2023-12-20T09:32:06;4.90;59.50
1455;DHT22;721;48.168;12.818;2023-12-20T09:34:33;4.90;59.60
1455;DHT22;721;48.168;12.818;2023-12-20T09:37:00;4.80;58.60
1455;DHT22;721;48.168;12.818;2023-12-20T09:39:28;4.90;59.70
1455;DHT22;721;48.168;12.818;2023-12-20T09:42:00;4.90;59.80
1455;DHT22;721;48.168;12.818;2023-12-20T09:44:28;4.90;58.90
1455;DHT22;721;48.168;12.818;2023-12-20T09:46:56;4.90;59.40
1455;DHT22;721;48.168;12.818;2023-12-20T09:49:25;4.90;59.10
1455;DHT22;721;48.168;12.818;2023-12-20T09:51:54;4.90;59.40
1455;DHT22;721;48.168;12.818;2023-12-20T09:54:21;4.90;59.10
1455;DHT22;721;48.168;12.818;2023-12-20T09:56:48;4.90;58.40
1455;DHT22;721;48.168;12.818;2023-12-20T09:59:15;4.90;58.40
1455;DHT22;721;48.168;12.818;2023-12-20T10:01:42;4.90;58.40
1455;DHT22;721;48.168;12.818;2023-12-20T10:04:10;4.90;58.20
1455;DHT22;721;48.168;12.818;2023-12-20T10:06:40;4.90;57.70
1455;DHT22;721;48.168;12.818;2023-12-20T10:09:07;4.90;57.70
1455;DHT22;721;48.168;12.818;2023-12-20T10:11:35;5.00;58.10
1455;DHT22;721;48.168;12.818;2023-12-20T10:14:03;4.90;58.10
1455;DHT22;721;48.168;12.818;2023-12-20T10:16:31;4.90;58.40
1455;DHT22;721;48.168;12.818;2023-12-20T10:18:58;4.90;58.40
1455;DHT22;721;48.168;12.818;2023-12-20T10:21:26;4.80;58.00
1455;DHT22;721;48.168;12.818;2023-12-20T10:23:55;4.90;57.60
1455;DHT22;721;48.168;12.818;2023-12-20T10:26:23;4.90;58.20
1455;DHT22;721;48.168;12.818;2023-12-20T10:28:50;4.90;56.70
1455;DHT22;721;48.168;12.818;2023-12-20T10:31:28;4.90;58.10
1455;DHT22;721;48.168;12.818;2023-12-20T10:33:56;4.80;57.50
1455;DHT22;721;48.168;12.818;2023-12-20T10:36:25;4.90;58.60
1455;DHT22;721;48.168;12.818;2023-12-20T10:38:54;4.90;59.90
1455;DHT22;721;48.168;12.818;2023-12-20T10:41:26;4.90;60.10
1455;DHT22;721;48.168;12.818;2023-12-20T10:43:56;4.90;60.10
1455;DHT22;721;48.168;12.818;2023-12-20T10:46:23;4.90;60.00
1455;DHT22;721;48.168;12.818;2023-12-20T10:48:52;4.90;60.10
1455;DHT22;721;48.168;12.818;2023-12-20T10:51:20;4.90;60.10
1455;DHT22;721;48.168;12.818;2023-12-20T10:53:48;4.90;60.10
1455;DHT22;721;48.168;12.818;2023-12-20T10:56:17;5.00;60.20
1455;DHT22;721;48.168;12.818;2023-12-20T10:58:45;5.00;60.10
1455;DHT22;721;48.168;12.818;2023-12-20T11:01:13;5.00;60.20
1455;DHT22;721;48.168;12.818;2023-12-20T11:03:46;5.00;60.50
1455;DHT22;721;48.168;12.818;2023-12-20T11:06:24;5.00;60.20
1455;DHT22;721;48.168;12.818;2023-12-20T11:08:58;5.00;60.70
1455;DHT22;721;48.168;12.818;2023-12-20T11:11:39;5.00;60.20
1455;DHT22;721;48.168;12.818;2023-12-20T11:14:15;5.10;60.70
1455;DHT22;721;48.168;12.818;2023-12-20T11:16:43;5.10;60.30
1455;DHT22;721;48.168;12.818;2023-12-20T11:19:11;5.10;60.80
1455;DHT22;721;48.168;12.818;2023-12-20T11:21:39;5.10;60.30
1455;DHT22;721;48.168;12.818;2023-12-20T11:24:06;5.10;60.30
1455;DHT22;721;48.168;12.818;2023-12-20T11:26:34;5.20;60.40
1455;DHT22;721;48.168;12.818;2023-12-20T11:29:29;5.20;60.70
1455;DHT22;721;48.168;12.818;2023-12-20T11:31:56;5.20;60.40
1455;DHT22;721;48.168;12.818;2023-12-20T11:34:27;5.20;60.20
1455;DHT22;721;48.168;12.818;2023-12-20T11:36:57;5.30;60.40
1455;DHT22;721;48.168;12.818;2023-12-20T11:39:25;5.30;59.80
1455;DHT22;721;48.168;12.818;2023-12-20T11:41:55;5.70;59.80
1455;DHT22;721;48.168;12.818;2023-12-20T11:44:24;5.40;59.40
1455;DHT22;721;48.168;12.818;2023-12-20T11:46:51;5.50;59.20
1455;DHT22;721;48.168;12.818;2023-12-20T11:49:23;5.50;59.10
1455;DHT22;721;48.168;12.818;2023-12-20T11:51:50;5.50;57.80
1455;DHT22;721;48.168;12.818;2023-12-20T11:54:17;5.60;57.20
1455;DHT22;721;48.168;12.818;2023-12-20T11:56:43;5.50;55.50
1455;DHT22;721;48.168;12.818;2023-12-20T11:59:12;5.50;56.20
1455;DHT22;721;48.168;12.818;2023-12-20T12:01:39;5.60;56.20
1455;DHT22;721;48.168;12.818;2023-12-20T12:04:06;5.70;56.10
1455;DHT22;721;48.168;12.818;2023-12-20T12:06:33;5.60;54.90
1455;DHT22;721;48.168;12.818;2023-12-20T12:09:00;5.70;55.40
1455;DHT22;721;48.168;12.818;2023-12-20T12:11:27;5.80;54.40
1455;DHT22;721;48.168;12.818;2023-12-20T12:13:54;5.70;51.80
1455;DHT22;721;48.168;12.818;2023-12-20T12:16:22;5.70;52.70
1455;DHT22;721;48.168;12.818;2023-12-20T12:18:56;5.70;52.00
1455;DHT22;721;48.168;12.818;2023-12-20T12:21:22;5.70;51.90
1455;DHT22;721;48.168;12.818;2023-12-20T12:23:49;5.70;51.70
1455;DHT22;721;48.168;12.818;2023-12-20T12:26:16;5.80;52.50
1455;DHT22;721;48.168;12.818;2023-12-20T12:28:43;5.80;52.60
1455;DHT22;721;48.168;12.818;2023-12-20T12:31:13;6.00;52.00
1455;DHT22;721;48.168;12.818;2023-12-20T12:33:42;5.90;51.70
1455;DHT22;721;48.168;12.818;2023-12-20T12:36:10;5.90;50.90
1455;DHT22;721;48.168;12.818;2023-12-20T12:38:37;6.00;49.70
1455;DHT22;721;48.168;12.818;2023-12-20T12:41:04;6.00;47.30
1455;DHT22;721;48.168;12.818;2023-12-20T12:43:32;6.10;48.20
1455;DHT22;721;48.168;12.818;2023-12-20T12:45:58;6.10;47.40
1455;DHT22;721;48.168;12.818;2023-12-20T12:48:25;6.10;48.30
1455;DHT22;721;48.168;12.818;2023-12-20T12:50:54;6.10;47.40
1455;DHT22;721;48.168;12.818;2023-12-20T12:53:25;6.20;47.60
1455;DHT22;721;48.168;12.818;2023-12-20T12:55:52;6.20;46.10
1455;DHT22;721;48.168;12.818;2023-12-20T12:58:19;6.20;44.80
1455;DHT22;721;48.168;12.818;2023-12-20T13:00:46;6.30;45.30
1455;DHT22;721;48.168;12.818;2023-12-20T13:03:12;6.30;43.90
1455;DHT22;721;48.168;12.818;2023-12-20T13:05:39;6.30;42.90
1455;DHT22;721;48.168;12.818;2023-12-20T13:08:08;6.30;42.30
1455;DHT22;721;48.168;12.818;2023-12-20T13:10:35;6.20;40.60
1455;DHT22;721;48.168;12.818;2023-12-20T13:13:01;6.20;40.60
1455;DHT22;721;48.168;12.818;2023-12-20T13:15:29;6.20;42.70
1455;DHT22;721;48.168;12.818;2023-12-20T13:17:57;6.30;40.90
1455;DHT22;721;48.168;12.818;2023-12-20T13:20:23;6.20;40.70
1455;DHT22;721;48.168;12.818;2023-12-20T13:22:50;6.20;42.20
1455;DHT22;721;48.168;12.818;2023-12-20T13:25:18;6.20;42.20
1455;DHT22;721;48.168;12.818;2023-12-20T13:27:45;6.10;42.30
1455;DHT22;721;48.168;12.818;2023-12-20T13:30:12;6.10;42.70
1455;DHT22;721;48.168;12.818;2023-12-20T13:32:39;6.00;44.20
1455;DHT22;721;48.168;12.818;2023-12-20T13:35:06;5.90;44.20
1455;DHT22;721;48.168;12.818;2023-12-20T13:37:34;5.90;44.80
1455;DHT22;721;48.168;12.818;2023-12-20T13:40:01;5.80;41.40
1455;DHT22;721;48.168;12.818;2023-12-20T13:42:34;5.60;41.10
1455;DHT22;721;48.168;12.818;2023-12-20T13:45:01;5.50;42.20
1455;DHT22;721;48.168;12.818;2023-12-20T13:47:30;5.40;42.10
1455;DHT22;721;48.168;12.818;2023-12-20T13:49:57;5.50;42.10
1455;DHT22;721;48.168;12.818;2023-12-20T13:52:23;5.30;42.60
1455;DHT22;721;48.168;12.818;2023-12-20T13:54:50;5.30;42.00
1455;DHT22;721;48.168;12.818;2023-12-20T13:57:17;5.30;42.00
1455;DHT22;721;48.168;12.818;2023-12-20T13:59:45;5.70;42.40
1455;DHT22;721;48.168;12.818;2023-12-20T14:02:12;5.40;43.30
1455;DHT22;721;48.168;12.818;2023-12-20T14:04:39;5.20;41.90
1455;DHT22;721;48.168;12.818;2023-12-20T14:07:06;5.20;42.40
1455;DHT22;721;48.168;12.818;2023-12-20T14:09:33;5.10;40.40
1455;DHT22;721;48.168;12.818;2023-12-20T14:12:00;5.10;40.70
1455;DHT22;721;48.168;12.818;2023-12-20T14:14:27;5.10;41.80
1455;DHT22;721;48.168;12.818;2023-12-20T14:16:55;5.10;43.60
1455;DHT22;721;48.168;12.818;2023-12-20T14:19:22;5.10;44.40
1455;DHT22;721;48.168;12.818;2023-12-20T14:21:49;5.10;45.70
1455;DHT22;721;48.168;12.818;2023-12-20T14:24:15;5.00;46.50
1455;DHT22;721;48.168;12.818;2023-12-20T14:26:42;5.00;46.90
1455;DHT22;721;48.168;12.818;2023-12-20T14:29:09;5.00;48.00
1455;DHT22;721;48.168;12.818;2023-12-20T14:31:36;5.00;48.10
1455;DHT22;721;48.168;12.818;2023-12-20T14:34:05;5.00;47.60
1455;DHT22;721;48.168;12.818;2023-12-20T14:36:32;5.00;47.60
1455;DHT22;721;48.168;12.818;2023-12-20T14:38:59;5.00;45.10
1455;DHT22;721;48.168;12.818;2023-12-20T14:41:26;5.00;46.50
1455;DHT22;721;48.168;12.818;2023-12-20T14:43:53;5.00;45.90
1455;DHT22;721;48.168;12.818;2023-12-20T14:46:20;5.00;44.90
1455;DHT22;721;48.168;12.818;2023-12-20T14:48:47;5.00;43.70
1455;DHT22;721;48.168;12.818;2023-12-20T14:51:16;4.90;42.30
1455;DHT22;721;48.168;12.818;2023-12-20T14:53:43;4.80;41.90
1455;DHT22;721;48.168;12.818;2023-12-20T14:56:12;4.80;42.60
1455;DHT22;721;48.168;12.818;2023-12-20T14:58:40;4.80;43.00
1455;DHT22;721;48.168;12.818;2023-12-20T15:01:07;4.80;41.50
1455;DHT22;721;48.168;12.818;2023-12-20T15:03:34;4.90;41.70
1455;DHT22;721;48.168;12.818;2023-12-20T15:06:01;4.80;41.70
1455;DHT22;721;48.168;12.818;2023-12-20T15:08:29;4.80;41.60
1455;DHT22;721;48.168;12.818;2023-12-20T15:10:56;4.80;40.20
1455;DHT22;721;48.168;12.818;2023-12-20T15:13:22;4.80;41.50
1455;DHT22;721;48.168;12.818;2023-12-20T15:15:49;4.80;41.60
1455;DHT22;721;48.168;12.818;2023-12-20T15:18:16;4.80;40.20
1455;DHT22;721;48.168;12.818;2023-12-20T15:20:43;4.90;41.40
1455;DHT22;721;48.168;12.818;2023-12-20T15:23:10;5.00;40.80
1455;DHT22;721;48.168;12.818;2023-12-20T15:25:38;4.90;40.10
1455;DHT22;721;48.168;12.818;2023-12-20T15:28:05;4.90;39.40
1455;DHT22;721;48.168;12.818;2023-12-20T15:30:33;5.00;37.50
1455;DHT22;721;48.168;12.818;2023-12-20T15:33:01;5.00;36.90
1455;DHT22;721;48.168;12.818;2023-12-20T15:35:28;5.00;36.90
1455;DHT22;721;48.168;12.818;2023-12-20T15:37:56;4.90;30.50
1455;DHT22;721;48.168;12.818;2023-12-20T15:40:24;4.90;31.90
1455;DHT22;721;48.168;12.818;2023-12-20T15:42:52;4.90;32.90
1455;DHT22;721;48.168;12.818;2023-12-20T15:45:19;4.90;32.20
1455;DHT22;721;48.168;12.818;2023-12-20T15:47:46;4.90;30.90
1455;DHT22;721;48.168;12.818;2023-12-20T15:50:13;4.80;30.20
1455;DHT22;721;48.168;12.818;2023-12-20T15:52:39;4.80;28.90
1455;DHT22;721;48.168;12.818;2023-12-20T15:55:08;4.70;27.90
1455;DHT22;721;48.168;12.818;2023-12-20T15:57:35;4.70;28.30
1455;DHT22;721;48.168;12.818;2023-12-20T16:00:05;4.60;26.00
1455;DHT22;721;48.168;12.818;2023-12-20T16:02:33;4.60;26.50
1455;DHT22;721;48.168;12.818;2023-12-20T16:05:00;4.50;26.20
1455;DHT22;721;48.168;12.818;2023-12-20T16:07:27;4.40;25.90
1455;DHT22;721;48.168;12.818;2023-12-20T16:09:54;5.10;24.80
1455;DHT22;721;48.168;12.818;2023-12-20T16:12:21;4.40;24.90
1455;DHT22;721;48.168;12.818;2023-12-20T16:14:48;4.30;25.20
1455;DHT22;721;48.168;12.818;2023-12-20T16:17:16;4.30;24.70
1455;DHT22;721;48.168;12.818;2023-12-20T16:19:43;4.20;23.90